sensor_id;sensor_type;location;lat;lon;timestamp;P1;durP1;ratioP1;P2;durP2;ratioP2
28547;SDS011;15750;49.600;8.746;2023-02-11T00:01:36;23.43;;;16.73;;
28547;SDS011;15750;49.600;8.746;2023-02-11T00:04:05;23.37;;;19.23;;
28547;SDS011;15750;49.600;8.746;2023-02-11T00:06:34;27.07;;;20.77;;
28547;SDS011;15750;49.600;8.746;2023-02-11T00:09:03;29.03;;;21.83;;
28547;SDS011;15750;49.600;8.746;2023-02-11T00:11:32;27.87;;;21.83;;
28547;SDS011;15750;49.600;8.746;2023-02-11T00:14:02;28.87;;;22.43;;
28547;SDS011;15750;49.600;8.746;2023-02-11T00:16:33;29.40;;;22.57;;
28547;SDS011;15750;49.600;8.746;2023-02-11T00:19:03;29.67;;;21.93;;
28547;SDS011;15750;49.600;8.746;2023-02-11T00:21:33;30.17;;;21.17;;
28547;SDS011;15750;49.600;8.746;2023-02-11T00:24:01;25.40;;;20.37;;
28547;SDS011;15750;49.600;8.746;2023-02-11T00:26:31;28.53;;;20.93;;
28547;SDS011;15750;49.600;8.746;2023-02-11T00:29:02;31.00;;;22.27;;
28547;SDS011;15750;49.600;8.746;2023-02-11T00:31:32;25.70;;;20.13;;
28547;SDS011;15750;49.600;8.746;2023-02-11T00:34:05;30.60;;;22.33;;
28547;SDS011;15750;49.600;8.746;2023-02-11T00:36:34;33.90;;;24.27;;
28547;SDS011;15750;49.600;8.746;2023-02-11T00:39:04;31.70;;;24.50;;
28547;SDS011;15750;49.600;8.746;2023-02-11T00:41:34;36.57;;;23.90;;
28547;SDS011;15750;49.600;8.746;2023-02-11T00:44:03;32.47;;;24.10;;
28547;SDS011;15750;49.600;8.746;2023-02-11T00:46:32;33.90;;;24.57;;
28547;SDS011;15750;49.600;8.746;2023-02-11T00:49:00;31.37;;;24.30;;
28547;SDS011;15750;49.600;8.746;2023-02-11T00:51:31;29.37;;;22.37;;
28547;SDS011;15750;49.600;8.746;2023-02-11T00:54:01;27.30;;;20.60;;
28547;SDS011;15750;49.600;8.746;2023-02-11T00:56:30;28.60;;;22.17;;
28547;SDS011;15750;49.600;8.746;2023-02-11T00:58:59;27.90;;;20.67;;
28547;SDS011;15750;49.600;8.746;2023-02-11T01:01:28;29.87;;;22.30;;
28547;SDS011;15750;49.600;8.746;2023-02-11T01:03:57;29.10;;;21.77;;
28547;SDS011;15750;49.600;8.746;2023-02-11T01:06:25;31.43;;;22.37;;
28547;SDS011;15750;49.600;8.746;2023-02-11T01:08:55;27.83;;;22.03;;
28547;SDS011;15750;49.600;8.746;2023-02-11T01:11:24;23.90;;;19.07;;
28547;SDS011;15750;49.600;8.746;2023-02-11T01:13:53;23.50;;;19.03;;
28547;SDS011;15750;49.600;8.746;2023-02-11T01:16:21;24.77;;;16.80;;
28547;SDS011;15750;49.600;8.746;2023-02-11T01:18:52;25.17;;;17.90;;
28547;SDS011;15750;49.600;8.746;2023-02-11T01:21:20;20.87;;;16.60;;
28547;SDS011;15750;49.600;8.746;2023-02-11T01:23:49;24.37;;;18.37;;
28547;SDS011;15750;49.600;8.746;2023-02-11T01:26:20;21.93;;;18.13;;
28547;SDS011;15750;49.600;8.746;2023-02-11T01:28:49;22.17;;;17.87;;
28547;SDS011;15750;49.600;8.746;2023-02-11T01:31:18;23.57;;;18.13;;
28547;SDS011;15750;49.600;8.746;2023-02-11T01:33:46;24.77;;;18.60;;
28547;SDS011;15750;49.600;8.746;2023-02-11T01:36:15;23.37;;;18.17;;
28547;SDS011;15750;49.600;8.746;2023-02-11T01:38:44;24.40;;;19.60;;
28547;SDS011;15750;49.600;8.746;2023-02-11T01:41:13;26.20;;;21.07;;
28547;SDS011;15750;49.600;8.746;2023-02-11T01:43:44;23.27;;;19.47;;
28547;SDS011;15750;49.600;8.746;2023-02-11T01:46:28;26.90;;;20.47;;
28547;SDS011;15750;49.600;8.746;2023-02-11T01:49:02;25.13;;;19.13;;
28547;SDS011;15750;49.600;8.746;2023-02-11T01:51:36;24.53;;;19.17;;
28547;SDS011;15750;49.600;8.746;2023-02-11T01:54:07;26.47;;;20.00;;
28547;SDS011;15750;49.600;8.746;2023-02-11T01:56:56;26.87;;;20.93;;
28547;SDS011;15750;49.600;8.746;2023-02-11T01:59:46;27.57;;;20.93;;
28547;SDS011;15750;49.600;8.746;2023-02-11T02:02:24;24.93;;;18.73;;
28547;SDS011;15750;49.600;8.746;2023-02-11T02:05:02;24.17;;;18.47;;
28547;SDS011;15750;49.600;8.746;2023-02-11T02:07:38;24.63;;;18.47;;
28547;SDS011;15750;49.600;8.746;2023-02-11T02:10:14;28.47;;;19.97;;
28547;SDS011;15750;49.600;8.746;2023-02-11T02:12:46;26.70;;;20.60;;
28547;SDS011;15750;49.600;8.746;2023-02-11T02:15:20;27.43;;;19.47;;
28547;SDS011;15750;49.600;8.746;2023-02-11T02:17:56;28.33;;;20.47;;
28547;SDS011;15750;49.600;8.746;2023-02-11T02:20:57;25.40;;;19.37;;
28547;SDS011;15750;49.600;8.746;2023-02-11T02:27:12;30.27;;;21.87;;
28547;SDS011;15750;49.600;8.746;2023-02-11T02:33:13;28.30;;;21.10;;
28547;SDS011;15750;49.600;8.746;2023-02-11T02:36:07;25.33;;;20.67;;
28547;SDS011;15750;49.600;8.746;2023-02-11T02:38:43;28.67;;;21.20;;
28547;SDS011;15750;49.600;8.746;2023-02-11T02:41:20;26.50;;;19.33;;
28547;SDS011;15750;49.600;8.746;2023-02-11T02:43:51;26.23;;;18.40;;
28547;SDS011;15750;49.600;8.746;2023-02-11T02:46:22;23.17;;;16.77;;
28547;SDS011;15750;49.600;8.746;2023-02-11T02:48:55;21.37;;;16.97;;
28547;SDS011;15750;49.600;8.746;2023-02-11T02:57:31;18.50;;;15.90;;
28547;SDS011;15750;49.600;8.746;2023-02-11T03:03:04;18.00;;;15.00;;
28547;SDS011;15750;49.600;8.746;2023-02-11T03:05:48;18.67;;;14.80;;
28547;SDS011;15750;49.600;8.746;2023-02-11T03:08:24;18.00;;;13.63;;
28547;SDS011;15750;49.600;8.746;2023-02-11T03:10:59;19.33;;;13.27;;
28547;SDS011;15750;49.600;8.746;2023-02-11T03:13:28;20.37;;;14.17;;
28547;SDS011;15750;49.600;8.746;2023-02-11T03:16:02;19.97;;;15.77;;
28547;SDS011;15750;49.600;8.746;2023-02-11T03:18:36;24.73;;;17.67;;
28547;SDS011;15750;49.600;8.746;2023-02-11T03:21:09;25.90;;;19.93;;
28547;SDS011;15750;49.600;8.746;2023-02-11T03:23:40;24.23;;;18.27;;
28547;SDS011;15750;49.600;8.746;2023-02-11T03:26:15;22.30;;;18.17;;
28547;SDS011;15750;49.600;8.746;2023-02-11T03:28:52;21.93;;;18.50;;
28547;SDS011;15750;49.600;8.746;2023-02-11T03:31:27;28.50;;;18.27;;
28547;SDS011;15750;49.600;8.746;2023-02-11T03:34:02;23.50;;;16.63;;
28547;SDS011;15750;49.600;8.746;2023-02-11T03:36:38;18.27;;;14.13;;
28547;SDS011;15750;49.600;8.746;2023-02-11T03:39:13;18.20;;;14.17;;
28547;SDS011;15750;49.600;8.746;2023-02-11T03:41:48;18.73;;;13.17;;
28547;SDS011;15750;49.600;8.746;2023-02-11T03:44:18;16.93;;;13.87;;
28547;SDS011;15750;49.600;8.746;2023-02-11T03:46:50;17.13;;;13.10;;
28547;SDS011;15750;49.600;8.746;2023-02-11T03:49:20;17.50;;;12.63;;
28547;SDS011;15750;49.600;8.746;2023-02-11T03:51:53;17.30;;;13.40;;
28547;SDS011;15750;49.600;8.746;2023-02-11T03:54:25;16.17;;;12.47;;
28547;SDS011;15750;49.600;8.746;2023-02-11T03:56:58;15.67;;;12.33;;
28547;SDS011;15750;49.600;8.746;2023-02-11T03:59:28;16.53;;;12.97;;
28547;SDS011;15750;49.600;8.746;2023-02-11T04:01:57;17.00;;;14.37;;
28547;SDS011;15750;49.600;8.746;2023-02-11T04:04:25;17.83;;;13.77;;
28547;SDS011;15750;49.600;8.746;2023-02-11T04:06:56;16.70;;;13.37;;
28547;SDS011;15750;49.600;8.746;2023-02-11T04:09:24;17.30;;;13.97;;
28547;SDS011;15750;49.600;8.746;2023-02-11T04:11:53;18.20;;;13.63;;
28547;SDS011;15750;49.600;8.746;2023-02-11T04:14:21;17.23;;;13.70;;
28547;SDS011;15750;49.600;8.746;2023-02-11T04:16:50;17.20;;;13.73;;
28547;SDS011;15750;49.600;8.746;2023-02-11T04:19:19;17.50;;;13.43;;
28547;SDS011;15750;49.600;8.746;2023-02-11T04:21:47;16.77;;;13.00;;
28547;SDS011;15750;49.600;8.746;2023-02-11T04:24:17;17.00;;;13.10;;
28547;SDS011;15750;49.600;8.746;2023-02-11T04:26:46;17.80;;;13.87;;
28547;SDS011;15750;49.600;8.746;2023-02-11T04:29:15;15.60;;;12.93;;
28547;SDS011;15750;49.600;8.746;2023-02-11T04:31:44;16.47;;;13.27;;
28547;SDS011;15750;49.600;8.746;2023-02-11T04:34:13;17.23;;;12.87;;
28547;SDS011;15750;49.600;8.746;2023-02-11T04:36:42;20.00;;;13.60;;
28547;SDS011;15750;49.600;8.746;2023-02-11T04:39:11;18.00;;;13.00;;
28547;SDS011;15750;49.600;8.746;2023-02-11T04:41:41;16.67;;;13.83;;
28547;SDS011;15750;49.600;8.746;2023-02-11T04:44:10;17.83;;;15.00;;
28547;SDS011;15750;49.600;8.746;2023-02-11T04:46:39;17.13;;;12.97;;
28547;SDS011;15750;49.600;8.746;2023-02-11T04:49:08;18.50;;;13.43;;
28547;SDS011;15750;49.600;8.746;2023-02-11T04:51:39;16.20;;;11.27;;
28547;SDS011;15750;49.600;8.746;2023-02-11T04:54:08;16.73;;;13.07;;
28547;SDS011;15750;49.600;8.746;2023-02-11T04:56:38;15.40;;;11.57;;
28547;SDS011;15750;49.600;8.746;2023-02-11T04:59:08;15.63;;;12.47;;
28547;SDS011;15750;49.600;8.746;2023-02-11T05:01:37;15.93;;;12.20;;
28547;SDS011;15750;49.600;8.746;2023-02-11T05:04:06;16.63;;;12.83;;
28547;SDS011;15750;49.600;8.746;2023-02-11T05:06:36;14.83;;;11.97;;
28547;SDS011;15750;49.600;8.746;2023-02-11T05:09:06;15.53;;;12.33;;
28547;SDS011;15750;49.600;8.746;2023-02-11T05:11:34;16.03;;;12.63;;
28547;SDS011;15750;49.600;8.746;2023-02-11T05:14:05;12.83;;;11.43;;
28547;SDS011;15750;49.600;8.746;2023-02-11T05:16:35;17.17;;;11.97;;
28547;SDS011;15750;49.600;8.746;2023-02-11T05:19:04;15.17;;;12.10;;
28547;SDS011;15750;49.600;8.746;2023-02-11T05:21:32;16.57;;;12.07;;
28547;SDS011;15750;49.600;8.746;2023-02-11T05:24:01;14.77;;;11.30;;
28547;SDS011;15750;49.600;8.746;2023-02-11T05:26:31;14.60;;;11.73;;
28547;SDS011;15750;49.600;8.746;2023-02-11T05:28:59;14.57;;;12.07;;
28547;SDS011;15750;49.600;8.746;2023-02-11T05:31:29;13.73;;;11.63;;
28547;SDS011;15750;49.600;8.746;2023-02-11T05:33:58;12.17;;;9.50;;
28547;SDS011;15750;49.600;8.746;2023-02-11T05:36:29;12.27;;;10.63;;
28547;SDS011;15750;49.600;8.746;2023-02-11T05:38:59;12.80;;;10.63;;
28547;SDS011;15750;49.600;8.746;2023-02-11T05:41:28;11.37;;;10.10;;
28547;SDS011;15750;49.600;8.746;2023-02-11T05:43:56;14.33;;;10.53;;
28547;SDS011;15750;49.600;8.746;2023-02-11T05:46:25;13.33;;;10.47;;
28547;SDS011;15750;49.600;8.746;2023-02-11T05:48:55;14.00;;;11.53;;
28547;SDS011;15750;49.600;8.746;2023-02-11T05:51:24;14.83;;;10.73;;
28547;SDS011;15750;49.600;8.746;2023-02-11T05:53:52;13.67;;;11.60;;
28547;SDS011;15750;49.600;8.746;2023-02-11T05:56:21;15.07;;;12.13;;
28547;SDS011;15750;49.600;8.746;2023-02-11T05:58:50;14.37;;;10.90;;
28547;SDS011;15750;49.600;8.746;2023-02-11T06:01:18;13.03;;;10.40;;
28547;SDS011;15750;49.600;8.746;2023-02-11T06:03:47;14.20;;;11.00;;
28547;SDS011;15750;49.600;8.746;2023-02-11T06:06:18;15.53;;;12.27;;
28547;SDS011;15750;49.600;8.746;2023-02-11T06:08:47;14.10;;;11.73;;
28547;SDS011;15750;49.600;8.746;2023-02-11T06:11:15;15.03;;;11.40;;
28547;SDS011;15750;49.600;8.746;2023-02-11T06:13:45;16.67;;;11.93;;
28547;SDS011;15750;49.600;8.746;2023-02-11T06:16:14;15.10;;;12.17;;
28547;SDS011;15750;49.600;8.746;2023-02-11T06:18:43;17.17;;;12.43;;
28547;SDS011;15750;49.600;8.746;2023-02-11T06:21:11;13.67;;;10.13;;
28547;SDS011;15750;49.600;8.746;2023-02-11T06:23:41;11.80;;;10.53;;
28547;SDS011;15750;49.600;8.746;2023-02-11T06:26:14;15.73;;;11.03;;
28547;SDS011;15750;49.600;8.746;2023-02-11T06:28:46;13.20;;;9.70;;
28547;SDS011;15750;49.600;8.746;2023-02-11T06:31:15;12.63;;;9.83;;
28547;SDS011;15750;49.600;8.746;2023-02-11T06:33:44;14.13;;;11.27;;
28547;SDS011;15750;49.600;8.746;2023-02-11T06:36:14;12.10;;;10.20;;
28547;SDS011;15750;49.600;8.746;2023-02-11T06:38:46;13.47;;;10.30;;
28547;SDS011;15750;49.600;8.746;2023-02-11T06:41:17;13.27;;;10.43;;
28547;SDS011;15750;49.600;8.746;2023-02-11T06:43:46;13.57;;;11.23;;
28547;SDS011;15750;49.600;8.746;2023-02-11T06:46:15;16.77;;;12.47;;
28547;SDS011;15750;49.600;8.746;2023-02-11T06:48:44;16.50;;;12.20;;
28547;SDS011;15750;49.600;8.746;2023-02-11T06:51:13;16.77;;;12.57;;
28547;SDS011;15750;49.600;8.746;2023-02-11T06:53:43;16.10;;;11.93;;
28547;SDS011;15750;49.600;8.746;2023-02-11T06:56:19;14.80;;;12.23;;
28547;SDS011;15750;49.600;8.746;2023-02-11T06:58:51;15.20;;;11.97;;
28547;SDS011;15750;49.600;8.746;2023-02-11T07:01:21;12.80;;;11.13;;
28547;SDS011;15750;49.600;8.746;2023-02-11T07:03:51;17.43;;;11.57;;
28547;SDS011;15750;49.600;8.746;2023-02-11T07:06:21;15.03;;;11.93;;
28547;SDS011;15750;49.600;8.746;2023-02-11T07:08:55;16.90;;;12.60;;
28547;SDS011;15750;49.600;8.746;2023-02-11T07:11:24;18.67;;;14.13;;
28547;SDS011;15750;49.600;8.746;2023-02-11T07:13:56;18.37;;;14.77;;
28547;SDS011;15750;49.600;8.746;2023-02-11T07:16:29;18.63;;;15.63;;
28547;SDS011;15750;49.600;8.746;2023-02-11T07:18:58;19.10;;;15.57;;
28547;SDS011;15750;49.600;8.746;2023-02-11T07:21:27;17.80;;;13.67;;
28547;SDS011;15750;49.600;8.746;2023-02-11T07:23:57;17.13;;;13.50;;
28547;SDS011;15750;49.600;8.746;2023-02-11T07:26:26;20.83;;;14.47;;
28547;SDS011;15750;49.600;8.746;2023-02-11T07:28:54;17.07;;;12.73;;
28547;SDS011;15750;49.600;8.746;2023-02-11T07:31:24;17.47;;;12.10;;
28547;SDS011;15750;49.600;8.746;2023-02-11T07:33:56;35.47;;;32.10;;
28547;SDS011;15750;49.600;8.746;2023-02-11T07:36:26;29.07;;;25.93;;
28547;SDS011;15750;49.600;8.746;2023-02-11T07:38:59;21.93;;;19.63;;
28547;SDS011;15750;49.600;8.746;2023-02-11T07:41:27;20.63;;;17.03;;
28547;SDS011;15750;49.600;8.746;2023-02-11T07:43:56;19.83;;;16.17;;
28547;SDS011;15750;49.600;8.746;2023-02-11T07:46:25;21.47;;;17.40;;
28547;SDS011;15750;49.600;8.746;2023-02-11T07:48:55;22.80;;;16.73;;
28547;SDS011;15750;49.600;8.746;2023-02-11T07:51:24;18.63;;;15.23;;
28547;SDS011;15750;49.600;8.746;2023-02-11T07:53:56;19.27;;;13.47;;
28547;SDS011;15750;49.600;8.746;2023-02-11T07:56:27;17.87;;;14.03;;
28547;SDS011;15750;49.600;8.746;2023-02-11T07:58:58;16.57;;;12.43;;
28547;SDS011;15750;49.600;8.746;2023-02-11T08:01:29;17.53;;;14.30;;
28547;SDS011;15750;49.600;8.746;2023-02-11T08:03:58;16.47;;;13.70;;
28547;SDS011;15750;49.600;8.746;2023-02-11T08:06:29;15.80;;;13.13;;
28547;SDS011;15750;49.600;8.746;2023-02-11T08:09:04;17.73;;;12.83;;
28547;SDS011;15750;49.600;8.746;2023-02-11T08:11:34;16.93;;;13.37;;
28547;SDS011;15750;49.600;8.746;2023-02-11T08:14:03;18.23;;;13.47;;
28547;SDS011;15750;49.600;8.746;2023-02-11T08:16:33;15.50;;;13.13;;
28547;SDS011;15750;49.600;8.746;2023-02-11T08:19:05;17.80;;;13.40;;
28547;SDS011;15750;49.600;8.746;2023-02-11T08:21:35;20.10;;;14.27;;
28547;SDS011;15750;49.600;8.746;2023-02-11T08:24:06;17.90;;;14.70;;
28547;SDS011;15750;49.600;8.746;2023-02-11T08:26:36;17.27;;;13.33;;
28547;SDS011;15750;49.600;8.746;2023-02-11T08:29:06;20.50;;;14.03;;
28547;SDS011;15750;49.600;8.746;2023-02-11T08:31:38;18.07;;;13.60;;
28547;SDS011;15750;49.600;8.746;2023-02-11T08:34:09;15.40;;;12.77;;
28547;SDS011;15750;49.600;8.746;2023-02-11T08:36:40;14.43;;;12.63;;
28547;SDS011;15750;49.600;8.746;2023-02-11T08:39:13;19.67;;;14.73;;
28547;SDS011;15750;49.600;8.746;2023-02-11T08:41:46;16.77;;;12.67;;
28547;SDS011;15750;49.600;8.746;2023-02-11T08:44:17;14.93;;;11.77;;
28547;SDS011;15750;49.600;8.746;2023-02-11T08:46:47;15.50;;;11.90;;
28547;SDS011;15750;49.600;8.746;2023-02-11T08:49:16;14.87;;;11.10;;
28547;SDS011;15750;49.600;8.746;2023-02-11T08:51:45;12.20;;;10.70;;
28547;SDS011;15750;49.600;8.746;2023-02-11T08:54:15;16.33;;;11.73;;
28547;SDS011;15750;49.600;8.746;2023-02-11T08:56:44;14.80;;;11.10;;
28547;SDS011;15750;49.600;8.746;2023-02-11T08:59:17;14.73;;;12.40;;
28547;SDS011;15750;49.600;8.746;2023-02-11T09:01:46;16.53;;;11.87;;
28547;SDS011;15750;49.600;8.746;2023-02-11T09:04:15;15.57;;;11.47;;
28547;SDS011;15750;49.600;8.746;2023-02-11T09:06:44;13.47;;;11.33;;
28547;SDS011;15750;49.600;8.746;2023-02-11T09:09:13;16.27;;;13.00;;
28547;SDS011;15750;49.600;8.746;2023-02-11T09:11:44;15.77;;;13.00;;
28547;SDS011;15750;49.600;8.746;2023-02-11T09:14:15;13.27;;;11.57;;
28547;SDS011;15750;49.600;8.746;2023-02-11T09:16:46;16.30;;;12.07;;
28547;SDS011;15750;49.600;8.746;2023-02-11T09:19:16;13.10;;;11.00;;
28547;SDS011;15750;49.600;8.746;2023-02-11T09:21:46;15.73;;;11.17;;
28547;SDS011;15750;49.600;8.746;2023-02-11T09:24:16;13.97;;;11.17;;
28547;SDS011;15750;49.600;8.746;2023-02-11T09:26:45;13.57;;;12.03;;
28547;SDS011;15750;49.600;8.746;2023-02-11T09:29:15;13.33;;;11.07;;
28547;SDS011;15750;49.600;8.746;2023-02-11T09:31:43;15.23;;;12.87;;
28547;SDS011;15750;49.600;8.746;2023-02-11T09:34:12;14.87;;;11.67;;
28547;SDS011;15750;49.600;8.746;2023-02-11T09:36:41;14.70;;;11.70;;
28547;SDS011;15750;49.600;8.746;2023-02-11T09:39:11;16.63;;;13.17;;
28547;SDS011;15750;49.600;8.746;2023-02-11T09:44:52;13.20;;;11.23;;
28547;SDS011;15750;49.600;8.746;2023-02-11T09:47:23;15.27;;;11.53;;
28547;SDS011;15750;49.600;8.746;2023-02-11T09:49:57;15.43;;;13.03;;
28547;SDS011;15750;49.600;8.746;2023-02-11T09:52:31;15.13;;;12.07;;
28547;SDS011;15750;49.600;8.746;2023-02-11T09:55:10;13.80;;;11.80;;
28547;SDS011;15750;49.600;8.746;2023-02-11T09:57:47;15.83;;;13.20;;
28547;SDS011;15750;49.600;8.746;2023-02-11T10:00:17;16.63;;;13.57;;
28547;SDS011;15750;49.600;8.746;2023-02-11T10:02:57;16.23;;;13.57;;
28547;SDS011;15750;49.600;8.746;2023-02-11T10:08:55;14.07;;;11.60;;
28547;SDS011;15750;49.600;8.746;2023-02-11T10:11:35;19.00;;;14.63;;
28547;SDS011;15750;49.600;8.746;2023-02-11T10:14:20;14.63;;;13.10;;
28547;SDS011;15750;49.600;8.746;2023-02-11T10:17:11;18.20;;;13.80;;
28547;SDS011;15750;49.600;8.746;2023-02-11T10:19:53;15.37;;;12.73;;
28547;SDS011;15750;49.600;8.746;2023-02-11T10:22:43;16.10;;;13.27;;
28547;SDS011;15750;49.600;8.746;2023-02-11T10:25:17;15.87;;;13.27;;
28547;SDS011;15750;49.600;8.746;2023-02-11T10:27:50;19.57;;;13.27;;
28547;SDS011;15750;49.600;8.746;2023-02-11T10:30:25;16.97;;;13.90;;
28547;SDS011;15750;49.600;8.746;2023-02-11T10:32:59;18.83;;;15.33;;
28547;SDS011;15750;49.600;8.746;2023-02-11T10:35:37;20.47;;;14.40;;
28547;SDS011;15750;49.600;8.746;2023-02-11T10:38:08;20.30;;;14.90;;
28547;SDS011;15750;49.600;8.746;2023-02-11T10:40:38;17.30;;;14.77;;
28547;SDS011;15750;49.600;8.746;2023-02-11T10:43:09;19.63;;;15.53;;
28547;SDS011;15750;49.600;8.746;2023-02-11T10:45:42;17.47;;;13.60;;
28547;SDS011;15750;49.600;8.746;2023-02-11T10:51:14;18.90;;;16.20;;
28547;SDS011;15750;49.600;8.746;2023-02-11T10:53:46;18.50;;;15.17;;
28547;SDS011;15750;49.600;8.746;2023-02-11T10:56:20;23.00;;;15.73;;
28547;SDS011;15750;49.600;8.746;2023-02-11T10:58:54;17.87;;;14.27;;
28547;SDS011;15750;49.600;8.746;2023-02-11T11:01:42;19.43;;;14.93;;
28547;SDS011;15750;49.600;8.746;2023-02-11T11:07:09;19.67;;;14.97;;
28547;SDS011;15750;49.600;8.746;2023-02-11T11:09:44;20.27;;;15.57;;
28547;SDS011;15750;49.600;8.746;2023-02-11T11:12:27;19.17;;;15.43;;
28547;SDS011;15750;49.600;8.746;2023-02-11T11:15:12;19.43;;;15.67;;
28547;SDS011;15750;49.600;8.746;2023-02-11T11:17:46;20.10;;;16.60;;
28547;SDS011;15750;49.600;8.746;2023-02-11T11:20:22;20.37;;;15.77;;
28547;SDS011;15750;49.600;8.746;2023-02-11T11:23:06;18.60;;;15.70;;
28547;SDS011;15750;49.600;8.746;2023-02-11T11:25:43;19.30;;;15.50;;
28547;SDS011;15750;49.600;8.746;2023-02-11T11:28:25;19.80;;;14.60;;
28547;SDS011;15750;49.600;8.746;2023-02-11T11:30:56;21.40;;;16.33;;
28547;SDS011;15750;49.600;8.746;2023-02-11T11:33:28;19.77;;;16.67;;
28547;SDS011;15750;49.600;8.746;2023-02-11T11:36:02;22.57;;;17.03;;
28547;SDS011;15750;49.600;8.746;2023-02-11T11:38:35;23.67;;;18.27;;
28547;SDS011;15750;49.600;8.746;2023-02-11T11:44:01;18.47;;;16.10;;
28547;SDS011;15750;49.600;8.746;2023-02-11T11:46:47;19.30;;;16.43;;
28547;SDS011;15750;49.600;8.746;2023-02-11T11:49:36;21.33;;;17.70;;
28547;SDS011;15750;49.600;8.746;2023-02-11T11:52:14;20.43;;;16.97;;
28547;SDS011;15750;49.600;8.746;2023-02-11T11:55:01;19.60;;;16.20;;
28547;SDS011;15750;49.600;8.746;2023-02-11T11:57:40;19.80;;;14.00;;
28547;SDS011;15750;49.600;8.746;2023-02-11T12:00:13;18.73;;;15.80;;
28547;SDS011;15750;49.600;8.746;2023-02-11T12:02:58;20.73;;;17.13;;
28547;SDS011;15750;49.600;8.746;2023-02-11T12:05:53;18.80;;;16.17;;
28547;SDS011;15750;49.600;8.746;2023-02-11T12:08:39;19.83;;;16.37;;
28547;SDS011;15750;49.600;8.746;2023-02-11T12:11:19;17.73;;;14.87;;
28547;SDS011;15750;49.600;8.746;2023-02-11T12:14:00;19.43;;;16.43;;
28547;SDS011;15750;49.600;8.746;2023-02-11T12:16:43;18.90;;;14.27;;
28547;SDS011;15750;49.600;8.746;2023-02-11T12:22:22;19.60;;;15.07;;
28547;SDS011;15750;49.600;8.746;2023-02-11T12:25:21;18.07;;;15.30;;
28547;SDS011;15750;49.600;8.746;2023-02-11T12:28:00;19.53;;;15.87;;
28547;SDS011;15750;49.600;8.746;2023-02-11T12:30:50;20.27;;;15.20;;
28547;SDS011;15750;49.600;8.746;2023-02-11T12:33:37;20.63;;;15.67;;
28547;SDS011;15750;49.600;8.746;2023-02-11T12:36:24;18.37;;;14.93;;
28547;SDS011;15750;49.600;8.746;2023-02-11T12:39:09;17.10;;;14.23;;
28547;SDS011;15750;49.600;8.746;2023-02-11T12:41:51;21.63;;;16.10;;
28547;SDS011;15750;49.600;8.746;2023-02-11T12:45:00;17.07;;;14.67;;
28547;SDS011;15750;49.600;8.746;2023-02-11T12:47:46;18.67;;;15.40;;
28547;SDS011;15750;49.600;8.746;2023-02-11T12:50:29;18.10;;;15.37;;
28547;SDS011;15750;49.600;8.746;2023-02-11T12:53:13;17.43;;;15.43;;
28547;SDS011;15750;49.600;8.746;2023-02-11T12:56:02;21.10;;;16.03;;
28547;SDS011;15750;49.600;8.746;2023-02-11T12:58:39;20.43;;;15.80;;
28547;SDS011;15750;49.600;8.746;2023-02-11T13:01:14;19.87;;;15.37;;
28547;SDS011;15750;49.600;8.746;2023-02-11T13:03:47;19.73;;;15.63;;
28547;SDS011;15750;49.600;8.746;2023-02-11T13:06:21;18.70;;;15.17;;
28547;SDS011;15750;49.600;8.746;2023-02-11T13:08:57;19.33;;;14.87;;
28547;SDS011;15750;49.600;8.746;2023-02-11T13:11:32;19.53;;;15.10;;
28547;SDS011;15750;49.600;8.746;2023-02-11T13:14:06;18.30;;;14.50;;
28547;SDS011;15750;49.600;8.746;2023-02-11T13:16:43;19.67;;;15.70;;
28547;SDS011;15750;49.600;8.746;2023-02-11T13:19:17;18.87;;;14.97;;
28547;SDS011;15750;49.600;8.746;2023-02-11T13:22:01;20.63;;;16.63;;
28547;SDS011;15750;49.600;8.746;2023-02-11T13:24:38;19.63;;;15.43;;
28547;SDS011;15750;49.600;8.746;2023-02-11T13:27:17;19.50;;;15.90;;
28547;SDS011;15750;49.600;8.746;2023-02-11T13:33:18;18.03;;;15.10;;
28547;SDS011;15750;49.600;8.746;2023-02-11T13:38:53;22.50;;;15.33;;
28547;SDS011;15750;49.600;8.746;2023-02-11T13:41:34;23.37;;;16.33;;
28547;SDS011;15750;49.600;8.746;2023-02-11T13:44:18;23.77;;;18.07;;
28547;SDS011;15750;49.600;8.746;2023-02-11T13:46:58;20.53;;;16.57;;
28547;SDS011;15750;49.600;8.746;2023-02-11T13:49:30;23.40;;;17.90;;
28547;SDS011;15750;49.600;8.746;2023-02-11T13:52:14;21.63;;;16.43;;
28547;SDS011;15750;49.600;8.746;2023-02-11T13:54:49;23.87;;;16.23;;
28547;SDS011;15750;49.600;8.746;2023-02-11T13:57:22;24.50;;;17.33;;
28547;SDS011;15750;49.600;8.746;2023-02-11T14:06:24;19.10;;;15.20;;
28547;SDS011;15750;49.600;8.746;2023-02-11T14:09:39;20.57;;;15.57;;
28547;SDS011;15750;49.600;8.746;2023-02-11T14:15:00;21.03;;;15.67;;
28547;SDS011;15750;49.600;8.746;2023-02-11T14:17:53;18.63;;;16.17;;
28547;SDS011;15750;49.600;8.746;2023-02-11T14:20:32;19.40;;;16.00;;
28547;SDS011;15750;49.600;8.746;2023-02-11T14:23:24;21.87;;;16.33;;
28547;SDS011;15750;49.600;8.746;2023-02-11T14:25:57;19.83;;;15.77;;
28547;SDS011;15750;49.600;8.746;2023-02-11T14:28:50;20.83;;;15.10;;
28547;SDS011;15750;49.600;8.746;2023-02-11T14:31:27;18.63;;;15.90;;
28547;SDS011;15750;49.600;8.746;2023-02-11T14:34:11;23.07;;;15.60;;
28547;SDS011;15750;49.600;8.746;2023-02-11T14:37:02;18.00;;;15.40;;
28547;SDS011;15750;49.600;8.746;2023-02-11T14:39:56;20.17;;;14.97;;
28547;SDS011;15750;49.600;8.746;2023-02-11T14:42:33;18.07;;;15.43;;
28547;SDS011;15750;49.600;8.746;2023-02-11T14:45:04;21.30;;;15.40;;
28547;SDS011;15750;49.600;8.746;2023-02-11T14:47:39;19.07;;;15.10;;
28547;SDS011;15750;49.600;8.746;2023-02-11T14:50:15;19.63;;;15.73;;
28547;SDS011;15750;49.600;8.746;2023-02-11T14:52:49;20.17;;;16.00;;
28547;SDS011;15750;49.600;8.746;2023-02-11T14:55:23;19.57;;;15.37;;
28547;SDS011;15750;49.600;8.746;2023-02-11T14:58:06;19.93;;;16.83;;
28547;SDS011;15750;49.600;8.746;2023-02-11T15:00:51;19.73;;;16.30;;
28547;SDS011;15750;49.600;8.746;2023-02-11T15:03:25;22.33;;;16.77;;
28547;SDS011;15750;49.600;8.746;2023-02-11T15:06:02;20.90;;;16.30;;
28547;SDS011;15750;49.600;8.746;2023-02-11T15:08:34;21.10;;;18.00;;
28547;SDS011;15750;49.600;8.746;2023-02-11T15:11:07;21.37;;;17.60;;
28547;SDS011;15750;49.600;8.746;2023-02-11T15:13:39;31.43;;;22.40;;
28547;SDS011;15750;49.600;8.746;2023-02-11T15:16:13;33.70;;;22.50;;
28547;SDS011;15750;49.600;8.746;2023-02-11T15:18:46;26.50;;;20.90;;
28547;SDS011;15750;49.600;8.746;2023-02-11T15:21:22;26.23;;;19.83;;
28547;SDS011;15750;49.600;8.746;2023-02-11T15:23:56;21.23;;;16.53;;
28547;SDS011;15750;49.600;8.746;2023-02-11T15:26:26;21.60;;;17.10;;
28547;SDS011;15750;49.600;8.746;2023-02-11T15:28:56;20.10;;;16.27;;
28547;SDS011;15750;49.600;8.746;2023-02-11T15:31:25;21.80;;;16.27;;
28547;SDS011;15750;49.600;8.746;2023-02-11T15:33:55;19.83;;;16.33;;
28547;SDS011;15750;49.600;8.746;2023-02-11T15:36:36;33.50;;;27.27;;
28547;SDS011;15750;49.600;8.746;2023-02-11T15:39:15;33.17;;;28.43;;
28547;SDS011;15750;49.600;8.746;2023-02-11T15:44:49;25.83;;;17.43;;
28547;SDS011;15750;49.600;8.746;2023-02-11T15:47:35;20.43;;;16.63;;
28547;SDS011;15750;49.600;8.746;2023-02-11T15:50:05;21.93;;;16.37;;
28547;SDS011;15750;49.600;8.746;2023-02-11T15:52:45;18.43;;;15.20;;